Time;durP1;ratioP1;P1;durP2;ratioP2;P2;SDS_P1;SDS_P2;PMS_P1;PMS_P2;Temp;Humidity;BMP_temperature;BMP_pressure;BME280_temperature;BME280_humidity;BME280_pressure;Samples;Min_cycle;Max_cycle;Signal;HPM_P1;HPM_P2
2024/01/29 00:01:15;;;;;;;7.20;3.10;;;;;;;-2.12;85.02;97442.33;110548;1274;22106;-79
2024/01/29 00:03:50;;;;;;;8.60;4.00;;;;;;;-2.14;84.98;97443.93;110505;1274;22263;-79
2024/01/29 00:06:18;;;;;;;8.10;4.00;;;;;;;-2.14;85.20;97444.27;110523;1274;22954;-79
2024/01/29 00:08:47;;;;;;;7.50;3.00;;;;;;;-2.14;85.15;97447.37;110551;1274;22217;-79
2024/01/29 00:11:15;;;;;;;9.70;3.80;;;;;;;-2.16;85.03;97445.90;110562;1274;23059;-79
2024/01/29 00:13:45;;;;;;;7.60;3.20;;;;;;;-2.18;85.08;97450.45;110542;1274;22172;-79
2024/01/29 00:16:14;;;;;;;6.90;3.80;;;;;;;-2.17;85.22;97460.15;110526;1274;23004;-79
2024/01/29 00:18:42;;;;;;;5.50;3.10;;;;;;;-2.15;85.30;97469.41;110532;1274;22217;-80
2024/01/29 00:21:12;;;;;;;9.60;4.40;;;;;;;-2.19;84.74;97468.45;110566;1274;22128;-79
2024/01/29 00:23:41;;;;;;;6.90;3.40;;;;;;;-2.24;84.76;97466.95;110543;1274;23036;-80
2024/01/29 00:26:09;;;;;;;6.70;3.30;;;;;;;-2.31;84.58;97468.46;110557;1274;22150;-79
2024/01/29 00:28:37;;;;;;;4.70;3.30;;;;;;;-2.36;84.64;97468.80;110524;1274;22132;-79
2024/01/29 00:31:05;;;;;;;5.70;3.10;;;;;;;-2.36;84.90;97469.84;110506;1274;22325;-79
2024/01/29 00:33:35;;;;;;;5.20;2.90;;;;;;;-2.39;84.68;97472.09;110512;1274;22420;-79
2024/01/29 00:36:04;;;;;;;7.40;3.30;;;;;;;-2.39;84.85;97470.35;110580;1274;22956;-79
2024/01/29 00:38:32;;;;;;;6.50;3.50;;;;;;;-2.40;84.84;97476.84;110508;1274;22126;-79
2024/01/29 00:41:00;;;;;;;5.40;2.90;;;;;;;-2.49;84.12;97474.57;110507;1274;22770;-79
2024/01/29 00:43:28;;;;;;;6.80;3.80;;;;;;;-2.57;84.26;97475.95;110536;1274;22827;-79
2024/01/29 00:45:57;;;;;;;6.80;3.50;;;;;;;-2.58;84.68;97475.19;110555;1274;22143;-79
2024/01/29 00:48:25;;;;;;;5.00;3.30;;;;;;;-2.59;84.69;97479.27;110595;1274;22751;-79
2024/01/29 00:50:55;;;;;;;5.80;3.00;;;;;;;-2.63;84.51;97480.46;110598;1274;22170;-79
2024/01/29 00:53:23;;;;;;;6.70;3.50;;;;;;;-2.65;84.40;97480.29;110605;1274;22144;-79
2024/01/29 00:55:53;;;;;;;7.50;3.80;;;;;;;-2.68;84.51;97479.41;110539;1274;22139;-79
2024/01/29 00:58:21;;;;;;;6.10;3.60;;;;;;;-2.72;84.36;97485.39;110533;1274;22196;-80
2024/01/29 01:00:50;;;;;;;7.00;3.40;;;;;;;-2.73;84.59;97490.98;110516;1274;22278;-79
2024/01/29 01:03:19;;;;;;;8.70;3.80;;;;;;;-2.72;84.66;97487.12;110533;1274;22251;-79
2024/01/29 01:05:47;;;;;;;5.70;3.30;;;;;;;-2.72;84.45;97484.84;110518;1274;22186;-79
2024/01/29 01:08:15;;;;;;;6.40;3.30;;;;;;;-2.74;84.31;97488.00;110516;1274;22134;-79
2024/01/29 01:10:44;;;;;;;4.60;3.20;;;;;;;-2.77;84.31;97484.03;110509;1274;22973;-79
2024/01/29 01:13:12;;;;;;;4.60;3.30;;;;;;;-2.79;84.19;97482.50;110533;1274;22197;-79
2024/01/29 01:15:40;;;;;;;6.40;3.00;;;;;;;-2.83;84.00;97478.34;110534;1274;22196;-79
2024/01/29 01:18:08;;;;;;;3.60;2.80;;;;;;;-2.85;84.14;97480.29;110522;1274;22219;-79
2024/01/29 01:20:37;;;;;;;6.90;3.10;;;;;;;-2.87;83.77;97476.54;110541;1274;22154;-79
2024/01/29 01:23:05;;;;;;;5.60;2.60;;;;;;;-2.89;84.00;97468.48;110434;1274;22165;-79
2024/01/29 01:25:33;;;;;;;4.70;2.60;;;;;;;-2.89;83.96;97467.46;110529;1274;22180;-79
2024/01/29 01:28:02;;;;;;;4.90;2.70;;;;;;;-2.88;84.16;97466.81;110521;1274;22135;-79
2024/01/29 01:30:30;;;;;;;4.40;2.40;;;;;;;-2.86;84.09;97472.82;110546;1274;22189;-79
2024/01/29 01:32:58;;;;;;;5.40;2.70;;;;;;;-2.87;83.98;97476.16;110560;1274;22202;-79
2024/01/29 01:35:26;;;;;;;5.80;2.60;;;;;;;-2.83;84.23;97474.02;110517;1274;22109;-79
2024/01/29 01:37:54;;;;;;;4.60;3.10;;;;;;;-2.79;84.28;97471.85;110512;1274;22288;-79
2024/01/29 01:40:23;;;;;;;7.10;3.20;;;;;;;-2.79;84.01;97472.03;110533;1274;22231;-79
2024/01/29 01:42:51;;;;;;;4.60;2.40;;;;;;;-2.82;83.72;97465.81;110523;1274;22137;-79
2024/01/29 01:45:19;;;;;;;4.90;2.30;;;;;;;-2.89;83.40;97464.52;110540;1274;22343;-79
2024/01/29 01:47:48;;;;;;;4.90;2.60;;;;;;;-2.91;83.83;97457.83;110503;1274;22156;-79
2024/01/29 01:50:16;;;;;;;4.10;2.60;;;;;;;-2.90;83.88;97463.61;110532;1274;22136;-79
2024/01/29 01:52:45;;;;;;;3.90;2.20;;;;;;;-2.87;83.98;97464.81;110523;1274;22133;-80
2024/01/29 01:55:13;;;;;;;5.10;2.80;;;;;;;-2.80;84.26;97466.78;110482;1274;22130;-79
2024/01/29 01:57:43;;;;;;;5.50;2.70;;;;;;;-2.75;84.27;97463.16;110526;1274;22140;-79
2024/01/29 02:00:11;;;;;;;3.80;2.30;;;;;;;-2.74;83.78;97463.20;110547;1262;22158;-80
2024/01/29 02:02:40;;;;;;;3.80;2.90;;;;;;;-2.77;83.61;97463.70;110618;1274;22176;-80
2024/01/29 02:05:08;;;;;;;3.70;2.20;;;;;;;-2.73;83.89;97461.91;110532;1274;22727;-80
2024/01/29 02:07:37;;;;;;;4.80;2.80;;;;;;;-2.67;83.94;97459.01;110544;1274;22134;-80
2024/01/29 02:10:06;;;;;;;5.20;2.40;;;;;;;-2.66;83.53;97460.79;110520;1274;22229;-80
2024/01/29 02:12:34;;;;;;;5.90;3.40;;;;;;;-2.69;83.65;97468.52;110516;1274;22157;-80
2024/01/29 02:15:04;;;;;;;18.80;8.50;;;;;;;-2.66;84.18;97466.09;110531;1274;22129;-80
2024/01/29 02:17:32;;;;;;;28.50;12.30;;;;;;;-2.62;84.38;97468.11;110533;1274;22134;-80
2024/01/29 02:20:00;;;;;;;29.00;13.30;;;;;;;-2.62;84.02;97475.52;110508;1274;22175;-80
2024/01/29 02:22:28;;;;;;;23.50;10.30;;;;;;;-2.60;84.20;97473.54;110501;1273;22796;-80
2024/01/29 02:24:56;;;;;;;9.70;4.70;;;;;;;-2.63;83.82;97469.06;110555;1274;22762;-80
2024/01/29 02:27:25;;;;;;;4.90;2.80;;;;;;;-2.70;83.46;97470.20;110571;1274;23054;-80
2024/01/29 02:29:53;;;;;;;6.30;3.40;;;;;;;-2.72;83.81;97468.82;110541;1274;22359;-80
2024/01/29 02:32:21;;;;;;;4.00;2.60;;;;;;;-2.74;84.05;97473.19;110617;1274;22180;-80
2024/01/29 02:34:49;;;;;;;4.30;2.10;;;;;;;-2.82;83.53;97469.95;110546;1274;22417;-80
2024/01/29 02:37:17;;;;;;;4.70;2.50;;;;;;;-2.87;83.83;97466.86;110513;1274;22202;-80
2024/01/29 02:39:50;;;;;;;7.00;2.70;;;;;;;-2.90;84.00;97463.08;110479;1274;23036;-80
2024/01/29 02:42:18;;;;;;;7.10;3.60;;;;;;;-2.95;84.41;97468.96;110528;1274;22146;-80
2024/01/29 02:44:46;;;;;;;6.40;3.40;;;;;;;-2.98;84.52;97472.15;110521;1274;22520;-80
2024/01/29 02:47:15;;;;;;;7.70;4.80;;;;;;;-3.02;84.39;97478.29;110526;1274;22817;-80
2024/01/29 02:49:44;;;;;;;5.90;3.90;;;;;;;-3.05;84.38;97477.59;110488;1271;22975;-80
2024/01/29 02:52:13;;;;;;;5.60;3.70;;;;;;;-3.05;84.46;97479.70;110601;1269;22151;-80
2024/01/29 02:54:41;;;;;;;6.80;4.30;;;;;;;-3.05;84.72;97479.48;110508;1274;22180;-80
2024/01/29 02:57:10;;;;;;;7.80;4.40;;;;;;;-3.12;84.51;97482.33;110546;1274;22272;-80
2024/01/29 02:59:38;;;;;;;7.00;4.00;;;;;;;-3.24;84.04;97485.02;110532;1274;22302;-80
2024/01/29 03:02:09;;;;;;;6.20;3.10;;;;;;;-3.29;84.46;97486.60;110474;1274;22278;-80
2024/01/29 03:04:37;;;;;;;5.30;3.20;;;;;;;-3.27;84.81;97489.10;110523;1274;22112;-80
2024/01/29 03:07:05;;;;;;;3.50;2.50;;;;;;;-3.23;85.09;97490.06;110525;1274;22241;-80
2024/01/29 03:09:34;;;;;;;8.10;4.00;;;;;;;-3.23;84.97;97487.84;110537;1274;22260;-80
2024/01/29 03:12:03;;;;;;;7.00;3.00;;;;;;;-3.21;84.98;97486.58;110522;1274;22113;-80
2024/01/29 03:14:31;;;;;;;4.80;2.60;;;;;;;-3.23;84.65;97487.46;110522;1275;22296;-80
2024/01/29 03:16:59;;;;;;;5.20;3.00;;;;;;;-3.27;84.48;97486.20;110533;1274;22884;-80
2024/01/29 03:19:27;;;;;;;4.90;2.90;;;;;;;-3.32;84.37;97490.01;110520;1274;22899;-80
2024/01/29 03:21:56;;;;;;;3.60;2.20;;;;;;;-3.36;84.33;97489.06;110621;1274;22297;-80
2024/01/29 03:24:24;;;;;;;3.50;2.60;;;;;;;-3.39;84.49;97488.18;110547;1274;22498;-80
2024/01/29 03:26:52;;;;;;;4.00;2.60;;;;;;;-3.38;84.78;97489.10;110555;1263;22417;-80
2024/01/29 03:29:20;;;;;;;3.30;2.30;;;;;;;-3.37;84.86;97481.23;110560;1274;22165;-80
2024/01/29 03:31:48;;;;;;;4.10;2.50;;;;;;;-3.36;84.79;97477.67;110596;1275;22864;-80
2024/01/29 03:34:16;;;;;;;4.30;2.30;;;;;;;-3.35;84.90;97477.90;110517;1274;22188;-80
2024/01/29 03:36:45;;;;;;;4.40;2.30;;;;;;;-3.36;84.73;97481.83;110525;1274;22127;-80
2024/01/29 03:39:13;;;;;;;2.70;1.80;;;;;;;-3.37;84.57;97480.52;110585;1274;22831;-80
2024/01/29 03:41:42;;;;;;;4.60;2.10;;;;;;;-3.42;84.05;97489.45;110527;1274;22150;-80
2024/01/29 03:44:10;;;;;;;4.10;2.30;;;;;;;-3.53;83.82;97482.73;110579;1275;22766;-80
2024/01/29 03:46:38;;;;;;;2.90;1.70;;;;;;;-3.59;84.06;97483.77;110575;1274;22865;-80
2024/01/29 03:49:06;;;;;;;3.30;1.60;;;;;;;-3.59;84.27;97487.48;110542;1259;22122;-80
2024/01/29 03:51:34;;;;;;;1.90;1.50;;;;;;;-3.64;83.98;97481.52;110541;1275;22286;-80
2024/01/29 03:54:02;;;;;;;3.30;1.70;;;;;;;-3.73;83.53;97479.73;110521;1274;22143;-80
2024/01/29 03:56:31;;;;;;;2.80;1.80;;;;;;;-3.81;83.70;97484.02;110514;1274;22131;-80
2024/01/29 03:58:59;;;;;;;2.20;1.60;;;;;;;-3.86;83.63;97479.37;110537;1274;22179;-80
2024/01/29 04:01:28;;;;;;;4.50;1.90;;;;;;;-3.95;83.51;97485.85;110569;1274;22860;-80
2024/01/29 04:03:56;;;;;;;2.90;1.80;;;;;;;-3.99;83.92;97488.98;110561;1275;22841;-80
2024/01/29 04:06:25;;;;;;;5.30;2.40;;;;;;;-4.05;83.94;97489.08;110549;1274;23018;-80
2024/01/29 04:08:53;;;;;;;8.40;4.40;;;;;;;-4.07;84.32;97494.45;110534;1274;22135;-80
2024/01/29 04:11:23;;;;;;;3.00;2.10;;;;;;;-4.13;84.07;97500.26;110518;1275;22599;-80
2024/01/29 04:13:51;;;;;;;2.50;1.80;;;;;;;-4.20;83.88;97493.59;110563;1274;22170;-80
2024/01/29 04:16:19;;;;;;;4.80;1.70;;;;;;;-4.29;83.55;97493.80;110566;1274;22241;-80
2024/01/29 04:18:47;;;;;;;3.00;2.00;;;;;;;-4.32;84.12;97494.48;110534;1274;22189;-80
2024/01/29 04:21:16;;;;;;;2.60;1.80;;;;;;;-4.28;84.56;97496.63;110530;1274;22154;-80
2024/01/29 04:23:44;;;;;;;3.90;1.60;;;;;;;-4.23;84.76;97490.29;110511;1274;22846;-80
2024/01/29 04:26:12;;;;;;;2.30;1.50;;;;;;;-4.18;84.72;97487.52;110590;1274;22878;-80
2024/01/29 04:28:40;;;;;;;2.80;1.60;;;;;;;-4.21;84.21;97491.13;110549;1274;22178;-80
2024/01/29 04:31:09;;;;;;;2.50;1.60;;;;;;;-4.24;83.90;97492.09;110498;1274;22136;-80
2024/01/29 04:33:41;;;;;;;3.30;2.20;;;;;;;-4.33;83.63;97500.58;110526;1274;22144;-80
2024/01/29 04:36:15;;;;;;;2.80;1.20;;;;;;;-4.34;83.96;97504.27;110562;1274;22166;-80
2024/01/29 04:38:43;;;;;;;;;;;;;;;-4.35;83.99;97510.58;110528;1274;22282;-80
2024/01/29 04:41:21;;;;;;;2.50;1.70;;;;;;;-4.34;84.20;97513.40;110557;1274;22442;-80
2024/01/29 04:43:50;;;;;;;3.30;1.30;;;;;;;-4.29;84.48;97509.95;110617;1274;22790;-80
2024/01/29 04:46:18;;;;;;;2.80;1.40;;;;;;;-4.27;84.52;97499.09;110548;1274;22109;-80
2024/01/29 04:48:46;;;;;;;3.00;1.30;;;;;;;-4.26;84.35;97494.23;110631;1274;22180;-80
2024/01/29 04:51:15;;;;;;;1.50;1.30;;;;;;;-4.28;84.09;97494.54;110563;1275;22191;-79
2024/01/29 04:53:43;;;;;;;2.30;1.60;;;;;;;-4.33;83.38;97496.42;110574;1275;22166;-79
2024/01/29 04:56:12;;;;;;;3.00;1.70;;;;;;;-4.44;83.22;97501.42;110553;1274;22174;-80
2024/01/29 04:58:40;;;;;;;2.40;1.60;;;;;;;-4.45;83.75;97500.80;110585;1274;22186;-80
2024/01/29 05:01:09;;;;;;;2.20;1.70;;;;;;;-4.43;83.96;97503.33;110563;1275;22125;-80
2024/01/29 05:03:39;;;;;;;1.80;1.40;;;;;;;-4.42;83.85;97514.23;110640;1274;22114;-80
2024/01/29 05:06:07;;;;;;;2.80;1.90;;;;;;;-4.43;83.86;97512.77;110592;1275;22120;-80
2024/01/29 05:08:35;;;;;;;2.30;1.90;;;;;;;-4.46;83.42;97517.18;110546;1275;22114;-79
2024/01/29 05:11:04;;;;;;;2.70;1.70;;;;;;;-4.55;83.19;97521.39;110585;1274;22127;-80
2024/01/29 05:13:33;;;;;;;1.90;1.50;;;;;;;-4.60;83.31;97529.31;110587;1274;22152;-80
2024/01/29 05:16:01;;;;;;;2.30;1.50;;;;;;;-4.64;83.15;97528.11;110623;1275;22940;-80
2024/01/29 05:18:33;;;;;;;2.00;1.50;;;;;;;-4.70;83.23;97534.77;110581;1274;22201;-80
2024/01/29 05:21:03;;;;;;;2.70;1.60;;;;;;;-4.71;83.48;97527.79;110543;1274;22102;-80
2024/01/29 05:23:31;;;;;;;3.00;1.50;;;;;;;-4.79;82.91;97524.83;110572;1274;22784;-79
2024/01/29 05:25:59;;;;;;;2.60;1.50;;;;;;;-4.89;82.86;97521.73;110537;1275;22874;-79
2024/01/29 05:28:28;;;;;;;3.00;2.30;;;;;;;-4.94;82.91;97529.41;110546;1274;22150;-80
2024/01/29 05:30:56;;;;;;;2.20;1.90;;;;;;;-4.98;83.07;97522.97;110580;1274;22115;-80
2024/01/29 05:33:25;;;;;;;3.10;1.70;;;;;;;-4.98;83.36;97528.48;110620;1274;22122;-80
2024/01/29 05:35:55;;;;;;;2.20;1.60;;;;;;;-4.97;83.55;97532.17;110599;1274;22327;-80
2024/01/29 05:38:24;;;;;;;2.70;1.60;;;;;;;-4.94;83.78;97538.20;110575;1275;22169;-80
2024/01/29 05:40:52;;;;;;;1.90;1.50;;;;;;;-4.91;83.86;97534.11;110576;1274;22129;-80
2024/01/29 05:43:20;;;;;;;2.20;1.50;;;;;;;-4.89;83.74;97535.95;110587;1274;22167;-80
2024/01/29 05:45:48;;;;;;;3.30;1.90;;;;;;;-4.94;83.12;97535.42;110577;1260;22113;-80
2024/01/29 05:48:17;;;;;;;4.10;2.10;;;;;;;-4.98;83.41;97538.41;110560;1275;22848;-80
2024/01/29 05:50:45;;;;;;;3.30;1.80;;;;;;;-5.01;83.34;97541.64;110568;1274;22153;-81
2024/01/29 05:53:13;;;;;;;2.50;1.60;;;;;;;-4.98;83.82;97541.83;110596;1275;22901;-81
2024/01/29 05:55:41;;;;;;;5.00;2.80;;;;;;;-4.95;83.80;97542.96;110519;1274;22147;-81
2024/01/29 05:58:10;;;;;;;7.40;5.30;;;;;;;-4.99;83.35;97544.38;110592;1275;22278;-81
2024/01/29 06:00:38;;;;;;;2.80;1.70;;;;;;;-4.97;83.77;97544.46;110578;1275;22131;-80
2024/01/29 06:03:07;;;;;;;4.70;2.30;;;;;;;-4.93;84.05;97539.79;110570;1274;22157;-82
2024/01/29 06:05:35;;;;;;;8.70;4.70;;;;;;;-4.89;84.13;97534.98;110525;1274;22201;-80
2024/01/29 06:08:04;;;;;;;7.90;4.20;;;;;;;-4.91;83.57;97539.58;110574;1275;22153;-82
2024/01/29 06:10:32;;;;;;;11.10;6.10;;;;;;;-4.94;83.38;97546.61;110491;1274;22314;-82
2024/01/29 06:13:00;;;;;;;5.90;3.40;;;;;;;-5.01;83.10;97541.48;110597;1274;22195;-80
2024/01/29 06:15:28;;;;;;;6.80;3.90;;;;;;;-5.00;83.51;97545.51;110555;1275;22119;-81
2024/01/29 06:17:57;;;;;;;6.00;3.30;;;;;;;-4.96;83.73;97546.77;110596;1274;22157;-82
2024/01/29 06:20:25;;;;;;;4.70;3.10;;;;;;;-4.90;83.96;97547.94;110574;1275;22990;-80
2024/01/29 06:22:53;;;;;;;6.00;3.50;;;;;;;-4.85;83.98;97549.83;110508;1275;22949;-80
2024/01/29 06:25:21;;;;;;;6.50;3.50;;;;;;;-4.80;83.79;97553.11;110562;1274;22150;-81
2024/01/29 06:27:50;;;;;;;3.40;2.20;;;;;;;-4.85;83.04;97553.99;110572;1274;22585;-82
2024/01/29 06:30:18;;;;;;;8.40;5.00;;;;;;;-4.90;82.94;97553.95;110551;1274;22122;-80
2024/01/29 06:32:46;;;;;;;3.60;2.30;;;;;;;-4.97;82.54;97561.98;110559;1274;22412;-81
2024/01/29 06:35:15;;;;;;;4.50;2.30;;;;;;;-5.04;82.62;97565.60;110604;1271;22128;-80
2024/01/29 06:37:43;;;;;;;5.60;2.20;;;;;;;-5.08;82.96;97565.52;110560;1275;22570;-80
2024/01/29 06:40:12;;;;;;;3.90;2.00;;;;;;;-5.04;83.23;97565.45;110567;1274;22110;-81
2024/01/29 06:42:40;;;;;;;3.80;2.30;;;;;;;-5.06;83.12;97568.10;110538;1274;22088;-80
2024/01/29 06:45:08;;;;;;;2.20;1.40;;;;;;;-5.01;83.57;97565.52;110554;1275;22845;-82
2024/01/29 06:47:37;;;;;;;2.40;1.60;;;;;;;-4.95;83.70;97560.27;110575;1274;22974;-81
2024/01/29 06:50:05;;;;;;;2.80;1.70;;;;;;;-4.89;83.78;97565.84;110533;1271;22291;-81
2024/01/29 06:52:33;;;;;;;3.30;2.40;;;;;;;-4.87;83.41;97569.91;110550;1275;22283;-80
2024/01/29 06:55:02;;;;;;;32.70;14.50;;;;;;;-4.86;83.20;97572.91;110553;1274;22272;-80
2024/01/29 06:57:30;;;;;;;19.40;8.80;;;;;;;-4.84;83.36;97573.27;110584;1259;23137;-79
2024/01/29 06:59:58;;;;;;;2.60;1.70;;;;;;;-4.75;83.83;97574.40;110553;1263;22120;-80
2024/01/29 07:02:27;;;;;;;4.70;2.30;;;;;;;-4.71;83.22;97573.15;110563;1275;22214;-79
2024/01/29 07:04:55;;;;;;;7.40;4.30;;;;;;;-4.71;83.08;97578.64;110553;1266;22148;-78
2024/01/29 07:07:24;;;;;;;5.20;3.30;;;;;;;-4.68;83.93;97580.55;110636;1275;22971;-77
2024/01/29 07:09:57;;;;;;;18.80;11.90;;;;;;;-4.64;83.75;97577.25;110542;1275;22220;-79
2024/01/29 07:12:26;;;;;;;17.90;10.00;;;;;;;-4.57;83.95;97573.26;110552;1275;22157;-79
2024/01/29 07:14:55;;;;;;;23.70;12.80;;;;;;;-4.45;84.26;97569.80;110564;1274;22121;-77
2024/01/29 07:17:24;;;;;;;33.20;18.90;;;;;;;-4.37;83.95;97562.20;110542;1274;22227;-77
2024/01/29 07:19:52;;;;;;;58.00;22.40;;;;;;;-4.21;84.55;97564.32;110614;1273;23109;-76
2024/01/29 07:22:21;;;;;;;56.90;20.20;;;;;;;-4.01;84.45;97568.59;110697;1273;22166;-76
2024/01/29 07:24:50;;;;;;;54.50;17.50;;;;;;;-3.89;83.61;97558.44;110710;1273;22111;-77
2024/01/29 07:27:18;;;;;;;24.50;8.50;;;;;;;-3.77;83.25;97552.56;110638;1273;22180;-77
2024/01/29 07:29:46;;;;;;;17.90;7.10;;;;;;;-3.64;82.57;97556.98;110607;1273;23024;-77
2024/01/29 07:32:14;;;;;;;16.10;6.10;;;;;;;-3.55;81.40;97556.11;110576;1273;23175;-77
2024/01/29 07:34:43;;;;;;;16.90;6.50;;;;;;;-3.42;81.71;97552.45;110709;1273;22973;-76
2024/01/29 07:37:11;;;;;;;30.70;11.30;;;;;;;-3.29;81.77;97552.80;110707;1273;22155;-79
2024/01/29 07:39:41;;;;;;;15.60;7.10;;;;;;;-3.18;80.87;97550.95;110709;1273;22264;-76
2024/01/29 07:42:10;;;;;;;19.00;8.60;;;;;;;-3.10;80.23;97541.16;110594;1263;22216;-77
2024/01/29 07:44:38;;;;;;;15.90;7.70;;;;;;;-3.01;80.57;97536.56;110715;1273;22186;-78
2024/01/29 07:47:06;;;;;;;15.00;7.30;;;;;;;-2.91;80.28;97533.08;110569;1273;22242;-77
2024/01/29 07:49:34;;;;;;;10.90;6.00;;;;;;;-2.81;79.53;97540.82;110698;1273;22821;-81
2024/01/29 07:52:03;;;;;;;16.50;6.80;;;;;;;-2.70;79.08;97547.53;110701;1273;22164;-77
2024/01/29 07:54:31;;;;;;;15.90;7.50;;;;;;;-2.62;78.79;97548.03;110573;1273;23030;-80
2024/01/29 07:57:00;;;;;;;17.70;8.10;;;;;;;-2.55;78.67;97551.76;110702;1273;22129;-79
2024/01/29 07:59:29;;;;;;;20.90;8.40;;;;;;;-2.46;78.89;97551.30;110736;1273;22984;-77
2024/01/29 08:01:57;;;;;;;28.70;8.50;;;;;;;-2.39;78.26;97549.84;110699;1273;23003;-80
2024/01/29 08:04:26;;;;;;;24.00;8.30;;;;;;;-2.26;78.68;97549.73;110713;1273;22892;-77
2024/01/29 08:06:55;;;;;;;21.00;8.30;;;;;;;-2.19;77.83;97546.89;110691;1273;22189;-78
2024/01/29 08:09:26;;;;;;;16.10;7.80;;;;;;;-2.13;77.35;97545.01;110712;1273;22721;-79
2024/01/29 08:11:54;;;;;;;14.40;7.90;;;;;;;-2.05;77.79;97551.76;110700;1273;22252;-79
2024/01/29 08:14:22;;;;;;;18.80;6.70;;;;;;;-1.92;78.49;97549.80;110720;1273;22170;-78
2024/01/29 08:16:51;;;;;;;11.60;6.90;;;;;;;-1.78;78.27;97547.33;110716;1273;22173;-77
2024/01/29 08:19:19;;;;;;;12.50;6.90;;;;;;;-1.67;77.66;97540.77;110705;1273;22191;-76
2024/01/29 08:21:49;;;;;;;14.40;6.00;;;;;;;-1.56;77.48;97540.56;110718;1273;22184;-77
2024/01/29 08:24:18;;;;;;;20.70;9.10;;;;;;;-1.49;77.15;97541.15;110712;1273;22179;-77
2024/01/29 08:26:46;;;;;;;29.40;8.50;;;;;;;-1.38;77.70;97542.84;110717;1273;23209;-78
2024/01/29 08:29:14;;;;;;;28.70;7.60;;;;;;;-1.32;75.84;97539.73;110721;1273;22162;-76
2024/01/29 08:31:42;;;;;;;15.70;5.70;;;;;;;-1.26;74.99;97541.10;110571;1273;22208;-77
2024/01/29 08:34:13;;;;;;;14.80;6.10;;;;;;;-1.17;75.83;97541.80;110729;1273;22368;-77
2024/01/29 08:36:41;;;;;;;17.80;6.50;;;;;;;-1.04;76.49;97547.69;110721;1273;22276;-77
2024/01/29 08:39:10;;;;;;;19.00;7.00;;;;;;;-0.91;76.04;97548.46;110727;1273;22177;-76
2024/01/29 08:41:38;;;;;;;16.90;6.50;;;;;;;-0.77;75.86;97552.67;110707;1273;22128;-76
2024/01/29 08:44:06;;;;;;;11.00;4.70;;;;;;;-0.68;75.67;97557.20;110709;1273;22105;-75
2024/01/29 08:46:34;;;;;;;13.20;4.30;;;;;;;-0.56;74.78;97556.29;110704;1273;22120;-76
2024/01/29 08:49:03;;;;;;;7.10;3.70;;;;;;;-0.46;74.16;97559.98;110598;1273;22120;-76
2024/01/29 08:51:31;;;;;;;6.40;3.20;;;;;;;-0.35;74.12;97559.91;110733;1273;22121;-76
2024/01/29 08:53:59;;;;;;;5.90;3.20;;;;;;;-0.25;74.00;97552.67;110719;1273;22223;-77
2024/01/29 08:56:29;;;;;;;6.70;3.60;;;;;;;-0.21;73.00;97545.08;110723;1273;22112;-76
2024/01/29 08:58:58;;;;;;;5.90;3.40;;;;;;;-0.21;72.17;97558.56;110741;1273;22087;-76
2024/01/29 09:01:26;;;;;;;8.90;3.30;;;;;;;-0.12;73.36;97552.83;110741;1273;22152;-75
2024/01/29 09:03:55;;;;;;;7.20;3.30;;;;;;;0.03;73.29;97550.20;110592;1273;22368;-77
2024/01/29 09:06:23;;;;;;;17.00;8.50;;;;;;;0.14;71.81;97550.90;110722;1273;22300;-76
2024/01/29 09:08:51;;;;;;;7.40;4.40;;;;;;;0.21;70.96;97548.20;110711;1273;22196;-76
2024/01/29 09:11:19;;;;;;;11.50;6.60;;;;;;;0.28;71.26;97549.95;110599;1273;22134;-77
2024/01/29 09:13:48;;;;;;;28.30;13.80;;;;;;;0.30;70.36;97552.13;110604;1273;22092;-75
2024/01/29 09:16:16;;;;;;;10.70;5.80;;;;;;;0.35;70.44;97552.55;110736;1273;22820;-75
2024/01/29 09:18:44;;;;;;;24.70;13.60;;;;;;;0.49;70.67;97550.84;110742;1273;22469;-76
2024/01/29 09:21:12;;;;;;;6.00;3.70;;;;;;;0.63;71.57;97552.09;110722;1273;22900;-76
2024/01/29 09:23:41;;;;;;;8.40;5.30;;;;;;;0.79;72.94;97551.52;110738;1273;22194;-77
2024/01/29 09:26:09;;;;;;;6.70;4.20;;;;;;;0.91;73.47;97550.41;110580;1273;22180;-78
2024/01/29 09:28:37;;;;;;;7.40;4.90;;;;;;;1.09;74.04;97544.36;110599;1273;22347;-76
2024/01/29 09:31:06;;;;;;;11.10;6.30;;;;;;;1.26;74.35;97538.98;110718;1262;22279;-76
2024/01/29 09:33:34;;;;;;;6.00;3.60;;;;;;;1.45;74.31;97539.33;110719;1273;22177;-76
2024/01/29 09:36:04;;;;;;;5.80;3.60;;;;;;;1.62;74.29;97538.96;110716;1273;22253;-76
2024/01/29 09:38:32;;;;;;;6.00;3.50;;;;;;;1.80;74.01;97535.11;110707;1273;22196;-76
2024/01/29 09:41:00;;;;;;;6.20;3.90;;;;;;;1.91;72.43;97531.29;110595;1273;22113;-75
2024/01/29 09:43:29;;;;;;;8.90;6.10;;;;;;;2.01;71.73;97528.61;110717;1273;22120;-76
2024/01/29 09:45:58;;;;;;;7.90;4.40;;;;;;;2.11;72.25;97528.00;110694;1273;22274;-76
2024/01/29 09:48:26;;;;;;;5.80;3.80;;;;;;;2.24;71.90;97528.39;110715;1273;22374;-76
2024/01/29 09:51:00;;;;;;;5.90;3.80;;;;;;;2.24;68.61;97525.31;110680;1267;22342;-78
2024/01/29 09:53:31;;;;;;;6.90;3.50;;;;;;;2.30;69.74;97522.80;110458;1273;22222;-77
2024/01/29 09:55:59;;;;;;;4.80;3.60;;;;;;;2.41;69.60;97523.61;110471;1274;22145;-76
2024/01/29 09:58:28;;;;;;;6.10;3.60;;;;;;;2.51;70.04;97523.17;110485;1274;22900;-77
2024/01/29 10:00:58;;;;;;;5.90;4.10;;;;;;;2.63;68.72;97523.70;110517;1270;22923;-77
2024/01/29 10:03:31;;;;;;;5.80;3.90;;;;;;;2.73;68.20;97520.12;110724;1273;22127;-77
2024/01/29 10:06:00;;;;;;;5.80;3.90;;;;;;;2.79;68.68;97520.22;110569;1273;22188;-78
2024/01/29 10:08:29;;;;;;;4.50;3.10;;;;;;;2.82;68.05;97526.26;110711;1273;23128;-77
2024/01/29 10:10:58;;;;;;;5.90;4.00;;;;;;;2.89;68.00;97528.27;110688;1273;22118;-76
2024/01/29 10:13:26;;;;;;;6.90;4.10;;;;;;;2.99;68.54;97532.52;110723;1273;22129;-77
2024/01/29 10:15:54;;;;;;;9.00;7.70;;;;;;;3.16;68.75;97535.48;110686;1273;22213;-79
2024/01/29 10:18:22;;;;;;;4.00;3.20;;;;;;;3.43;68.07;97532.04;110756;1273;22997;-76
2024/01/29 10:21:01;;;;;;;6.80;4.10;;;;;;;3.71;64.41;97521.34;110705;1273;22123;-77
2024/01/29 10:23:31;;;;;;;10.60;6.80;;;;;;;4.22;66.93;97522.73;110599;1273;22187;-78
2024/01/29 10:26:00;;;;;;;4.80;3.60;;;;;;;4.75;65.11;97520.30;110700;1273;22214;-77
2024/01/29 10:28:28;;;;;;;4.20;3.10;;;;;;;5.15;63.03;97515.38;110736;1273;22167;-78
2024/01/29 10:30:58;;;;;;;5.40;3.30;;;;;;;5.35;59.73;97511.48;110721;1273;22118;-77
2024/01/29 10:33:27;;;;;;;7.90;5.50;;;;;;;5.81;60.34;97512.76;110750;1273;22208;-78
2024/01/29 10:36:02;;;;;;;5.90;5.00;;;;;;;6.15;58.55;97512.77;110736;1273;23183;-78
2024/01/29 10:38:33;;;;;;;5.20;3.60;;;;;;;6.50;57.68;97512.21;110602;1273;22373;-78
2024/01/29 10:41:06;;;;;;;15.50;13.90;;;;;;;6.86;57.35;97508.64;110732;1273;22218;-78
2024/01/29 10:43:41;;;;;;;4.00;3.10;;;;;;;7.24;56.49;97501.21;110597;1273;22207;-78
2024/01/29 10:46:11;;;;;;;5.20;3.80;;;;;;;7.58;52.80;97495.05;110622;1273;22303;-78
2024/01/29 10:48:41;;;;;;;6.50;5.80;;;;;;;7.91;51.66;97494.73;110649;1273;22224;-78
2024/01/29 10:51:12;;;;;;;5.10;3.20;;;;;;;8.23;50.49;97486.30;110765;1273;22201;-78
2024/01/29 10:53:42;;;;;;;4.10;3.40;;;;;;;8.60;50.10;97490.80;110464;1273;342443;-78
2024/01/29 10:56:11;;;;;;;8.60;6.10;;;;;;;9.07;49.65;97486.55;110747;1273;22754;-78
2024/01/29 10:58:39;;;;;;;3.00;2.70;;;;;;;9.06;44.69;97487.25;110643;1268;22736;-78
2024/01/29 11:01:10;;;;;;;2.40;2.20;;;;;;;9.22;44.79;97487.17;110722;1273;22128;-78
2024/01/29 11:03:41;;;;;;;3.40;3.10;;;;;;;9.32;44.26;97486.98;110612;1273;22182;-78
2024/01/29 11:06:28;;;;;;;6.90;5.60;;;;;;;9.23;42.83;97488.06;110723;1273;22198;-78
2024/01/29 11:09:02;;;;;;;3.70;2.80;;;;;;;9.29;42.62;97490.80;110749;1273;22263;-79
2024/01/29 11:11:31;;;;;;;3.50;3.20;;;;;;;9.39;43.43;97492.02;110606;1273;22149;-78
2024/01/29 11:13:59;;;;;;;4.60;3.20;;;;;;;9.66;44.30;97486.46;110749;1273;22151;-78
2024/01/29 11:16:28;;;;;;;6.30;4.10;;;;;;;9.91;43.07;97487.90;110763;1273;22324;-78
2024/01/29 11:18:58;;;;;;;5.10;4.20;;;;;;;9.67;42.05;97482.45;110720;1273;22184;-78
2024/01/29 11:21:26;;;;;;;13.10;9.20;;;;;;;9.96;43.03;97482.87;110742;1273;22201;-79
2024/01/29 11:23:56;;;;;;;4.10;3.10;;;;;;;10.31;41.77;97483.01;110728;1273;22219;-78
2024/01/29 11:26:25;;;;;;;5.90;4.50;;;;;;;10.55;41.46;97481.21;110739;1273;22400;-78
2024/01/29 11:29:03;;;;;;;9.70;6.50;;;;;;;10.60;40.25;97478.45;110589;1273;22912;-78
2024/01/29 11:31:41;;;;;;;12.10;8.30;;;;;;;10.47;40.44;97480.05;110725;1273;22909;-78